sensor_id;sensor_type;location;lat;lon;timestamp;P1;durP1;ratioP1;P2;durP2;ratioP2
38972;SDS011;25333;50.762;4.470;2023-02-12T00:02:23;35.87;;;26.27;;
38972;SDS011;25333;50.762;4.470;2023-02-12T00:04:48;31.10;;;23.70;;
38972;SDS011;25333;50.762;4.470;2023-02-12T00:07:14;32.80;;;25.53;;
38972;SDS011;25333;50.762;4.470;2023-02-12T00:09:40;31.92;;;24.83;;
38972;SDS011;25333;50.762;4.470;2023-02-12T00:12:06;29.77;;;21.60;;
38972;SDS011;25333;50.762;4.470;2023-02-12T00:14:32;34.97;;;23.73;;
38972;SDS011;25333;50.762;4.470;2023-02-12T00:16:58;29.70;;;23.77;;
38972;SDS011;25333;50.762;4.470;2023-02-12T00:19:24;28.80;;;21.90;;
38972;SDS011;25333;50.762;4.470;2023-02-12T00:21:50;26.67;;;20.80;;
38972;SDS011;25333;50.762;4.470;2023-02-12T00:24:15;29.57;;;21.73;;
38972;SDS011;25333;50.762;4.470;2023-02-12T00:26:41;26.95;;;20.85;;
38972;SDS011;25333;50.762;4.470;2023-02-12T00:29:06;29.17;;;22.50;;
38972;SDS011;25333;50.762;4.470;2023-02-12T00:31:32;26.70;;;20.27;;
38972;SDS011;25333;50.762;4.470;2023-02-12T00:33:58;28.33;;;20.97;;
38972;SDS011;25333;50.762;4.470;2023-02-12T00:36:24;25.80;;;21.48;;
38972;SDS011;25333;50.762;4.470;2023-02-12T00:38:53;26.33;;;19.65;;
38972;SDS011;25333;50.762;4.470;2023-02-12T00:41:19;24.33;;;18.98;;
38972;SDS011;25333;50.762;4.470;2023-02-12T00:43:46;25.80;;;19.67;;
38972;SDS011;25333;50.762;4.470;2023-02-12T00:46:12;22.75;;;19.02;;
38972;SDS011;25333;50.762;4.470;2023-02-12T00:48:38;25.40;;;18.95;;
38972;SDS011;25333;50.762;4.470;2023-02-12T00:51:04;22.98;;;17.05;;
38972;SDS011;25333;50.762;4.470;2023-02-12T00:53:30;23.27;;;17.50;;
38972;SDS011;25333;50.762;4.470;2023-02-12T00:55:56;22.23;;;17.60;;
38972;SDS011;25333;50.762;4.470;2023-02-12T00:58:23;23.20;;;16.38;;
38972;SDS011;25333;50.762;4.470;2023-02-12T01:00:49;24.13;;;18.90;;
38972;SDS011;25333;50.762;4.470;2023-02-12T01:03:15;24.20;;;18.10;;
38972;SDS011;25333;50.762;4.470;2023-02-12T01:05:41;21.27;;;16.45;;
38972;SDS011;25333;50.762;4.470;2023-02-12T01:08:07;18.98;;;15.93;;
38972;SDS011;25333;50.762;4.470;2023-02-12T01:10:34;19.20;;;15.00;;
38972;SDS011;25333;50.762;4.470;2023-02-12T01:13:00;22.33;;;17.27;;
38972;SDS011;25333;50.762;4.470;2023-02-12T01:15:26;22.30;;;17.52;;
38972;SDS011;25333;50.762;4.470;2023-02-12T01:17:51;21.27;;;16.20;;
38972;SDS011;25333;50.762;4.470;2023-02-12T01:20:18;21.05;;;17.23;;
38972;SDS011;25333;50.762;4.470;2023-02-12T01:22:45;26.23;;;17.70;;
38972;SDS011;25333;50.762;4.470;2023-02-12T01:25:11;17.75;;;14.57;;
38972;SDS011;25333;50.762;4.470;2023-02-12T01:27:37;20.73;;;16.10;;
38972;SDS011;25333;50.762;4.470;2023-02-12T01:30:04;16.67;;;14.30;;
38972;SDS011;25333;50.762;4.470;2023-02-12T01:32:31;20.17;;;15.82;;
38972;SDS011;25333;50.762;4.470;2023-02-12T01:34:58;18.25;;;15.77;;
38972;SDS011;25333;50.762;4.470;2023-02-12T01:37:23;19.17;;;15.13;;
38972;SDS011;25333;50.762;4.470;2023-02-12T01:39:49;21.02;;;15.52;;
38972;SDS011;25333;50.762;4.470;2023-02-12T01:42:14;18.70;;;15.63;;
38972;SDS011;25333;50.762;4.470;2023-02-12T01:45:37;20.63;;;15.15;;
38972;SDS011;25333;50.762;4.470;2023-02-12T01:47:41;18.80;;;15.23;;
38972;SDS011;25333;50.762;4.470;2023-02-12T01:50:10;17.97;;;14.90;;
38972;SDS011;25333;50.762;4.470;2023-02-12T01:52:38;17.88;;;15.68;;
38972;SDS011;25333;50.762;4.470;2023-02-12T01:55:06;17.08;;;14.82;;
38972;SDS011;25333;50.762;4.470;2023-02-12T01:57:34;17.23;;;14.57;;
38972;SDS011;25333;50.762;4.470;2023-02-12T02:00:05;17.75;;;14.70;;
38972;SDS011;25333;50.762;4.470;2023-02-12T02:02:38;16.33;;;14.33;;
38972;SDS011;25333;50.762;4.470;2023-02-12T02:05:04;19.67;;;15.77;;
38972;SDS011;25333;50.762;4.470;2023-02-12T02:07:30;21.65;;;15.00;;
38972;SDS011;25333;50.762;4.470;2023-02-12T02:09:57;17.60;;;14.68;;
38972;SDS011;25333;50.762;4.470;2023-02-12T02:12:25;15.48;;;12.77;;
38972;SDS011;25333;50.762;4.470;2023-02-12T02:15:10;16.90;;;14.77;;
38972;SDS011;25333;50.762;4.470;2023-02-12T02:26:39;16.95;;;14.35;;
38972;SDS011;25333;50.762;4.470;2023-02-12T02:29:33;16.67;;;14.25;;
38972;SDS011;25333;50.762;4.470;2023-02-12T02:34:58;15.82;;;13.05;;
38972;SDS011;25333;50.762;4.470;2023-02-12T02:37:38;17.08;;;14.88;;
38972;SDS011;25333;50.762;4.470;2023-02-12T02:43:07;15.95;;;14.07;;
38972;SDS011;25333;50.762;4.470;2023-02-12T02:45:46;16.65;;;14.45;;
38972;SDS011;25333;50.762;4.470;2023-02-12T02:48:16;17.15;;;13.38;;
38972;SDS011;25333;50.762;4.470;2023-02-12T02:50:50;15.63;;;12.82;;
38972;SDS011;25333;50.762;4.470;2023-02-12T02:53:22;18.15;;;14.60;;
38972;SDS011;25333;50.762;4.470;2023-02-12T02:55:54;18.65;;;14.68;;
38972;SDS011;25333;50.762;4.470;2023-02-12T02:58:27;18.23;;;14.93;;
38972;SDS011;25333;50.762;4.470;2023-02-12T03:01:00;18.40;;;15.07;;
38972;SDS011;25333;50.762;4.470;2023-02-12T03:03:37;18.15;;;14.48;;
38972;SDS011;25333;50.762;4.470;2023-02-12T03:06:07;18.55;;;14.00;;
38972;SDS011;25333;50.762;4.470;2023-02-12T03:08:45;17.10;;;12.90;;
38972;SDS011;25333;50.762;4.470;2023-02-12T03:11:16;13.80;;;11.57;;
38972;SDS011;25333;50.762;4.470;2023-02-12T03:16:43;15.83;;;13.30;;
38972;SDS011;25333;50.762;4.470;2023-02-12T03:19:22;15.85;;;12.82;;
38972;SDS011;25333;50.762;4.470;2023-02-12T03:21:53;18.02;;;13.85;;
38972;SDS011;25333;50.762;4.470;2023-02-12T03:27:51;15.25;;;13.65;;
38972;SDS011;25333;50.762;4.470;2023-02-12T03:38:58;15.15;;;13.55;;
38972;SDS011;25333;50.762;4.470;2023-02-12T03:42:33;14.43;;;12.73;;
38972;SDS011;25333;50.762;4.470;2023-02-12T03:47:20;13.90;;;11.55;;
38972;SDS011;25333;50.762;4.470;2023-02-12T03:50:07;16.77;;;13.38;;
38972;SDS011;25333;50.762;4.470;2023-02-12T03:52:38;14.45;;;11.23;;
38972;SDS011;25333;50.762;4.470;2023-02-12T03:55:04;15.93;;;12.95;;
38972;SDS011;25333;50.762;4.470;2023-02-12T03:57:33;15.60;;;13.00;;
38972;SDS011;25333;50.762;4.470;2023-02-12T04:00:14;14.75;;;13.20;;
38972;SDS011;25333;50.762;4.470;2023-02-12T04:02:43;14.70;;;13.00;;
38972;SDS011;25333;50.762;4.470;2023-02-12T04:05:18;14.52;;;12.35;;
38972;SDS011;25333;50.762;4.470;2023-02-12T04:07:49;17.15;;;12.35;;
38972;SDS011;25333;50.762;4.470;2023-02-12T04:10:16;16.60;;;12.13;;
38972;SDS011;25333;50.762;4.470;2023-02-12T04:12:45;15.90;;;12.77;;
38972;SDS011;25333;50.762;4.470;2023-02-12T04:15:26;13.13;;;11.55;;
38972;SDS011;25333;50.762;4.470;2023-02-12T04:18:06;15.93;;;13.00;;
38972;SDS011;25333;50.762;4.470;2023-02-12T04:20:52;15.43;;;13.20;;
38972;SDS011;25333;50.762;4.470;2023-02-12T04:26:13;18.50;;;15.77;;
38972;SDS011;25333;50.762;4.470;2023-02-12T04:28:48;17.13;;;15.20;;
38972;SDS011;25333;50.762;4.470;2023-02-12T04:31:29;18.25;;;15.73;;
38972;SDS011;25333;50.762;4.470;2023-02-12T04:36:39;20.17;;;15.82;;
38972;SDS011;25333;50.762;4.470;2023-02-12T04:39:16;17.40;;;15.57;;
38972;SDS011;25333;50.762;4.470;2023-02-12T04:41:46;15.98;;;13.18;;
38972;SDS011;25333;50.762;4.470;2023-02-12T04:44:20;16.80;;;14.17;;
38972;SDS011;25333;50.762;4.470;2023-02-12T04:46:48;15.00;;;13.40;;
38972;SDS011;25333;50.762;4.470;2023-02-12T04:49:15;15.75;;;12.65;;
38972;SDS011;25333;50.762;4.470;2023-02-12T04:51:42;16.83;;;14.15;;
38972;SDS011;25333;50.762;4.470;2023-02-12T04:54:07;16.43;;;14.23;;
38972;SDS011;25333;50.762;4.470;2023-02-12T04:56:33;16.30;;;13.32;;
38972;SDS011;25333;50.762;4.470;2023-02-12T04:58:59;18.23;;;14.17;;
38972;SDS011;25333;50.762;4.470;2023-02-12T05:01:24;15.35;;;12.60;;
38972;SDS011;25333;50.762;4.470;2023-02-12T05:03:50;15.70;;;13.60;;
38972;SDS011;25333;50.762;4.470;2023-02-12T05:06:16;17.58;;;15.13;;
38972;SDS011;25333;50.762;4.470;2023-02-12T05:08:42;19.70;;;16.00;;
38972;SDS011;25333;50.762;4.470;2023-02-12T05:11:08;20.50;;;16.17;;
38972;SDS011;25333;50.762;4.470;2023-02-12T05:13:37;17.60;;;15.50;;
38972;SDS011;25333;50.762;4.470;2023-02-12T05:16:06;19.13;;;13.85;;
38972;SDS011;25333;50.762;4.470;2023-02-12T05:18:32;18.17;;;16.25;;
38972;SDS011;25333;50.762;4.470;2023-02-12T05:20:59;21.88;;;16.52;;
38972;SDS011;25333;50.762;4.470;2023-02-12T05:23:30;18.77;;;16.67;;
38972;SDS011;25333;50.762;4.470;2023-02-12T05:25:59;17.55;;;14.57;;
38972;SDS011;25333;50.762;4.470;2023-02-12T05:28:28;17.17;;;15.38;;
38972;SDS011;25333;50.762;4.470;2023-02-12T05:30:54;16.98;;;14.48;;
38972;SDS011;25333;50.762;4.470;2023-02-12T05:33:24;17.17;;;13.95;;
38972;SDS011;25333;50.762;4.470;2023-02-12T05:35:50;17.83;;;14.23;;
38972;SDS011;25333;50.762;4.470;2023-02-12T05:38:16;18.73;;;14.48;;
38972;SDS011;25333;50.762;4.470;2023-02-12T05:40:42;16.45;;;13.85;;
38972;SDS011;25333;50.762;4.470;2023-02-12T05:43:07;17.07;;;13.40;;
38972;SDS011;25333;50.762;4.470;2023-02-12T05:45:33;22.03;;;17.80;;
38972;SDS011;25333;50.762;4.470;2023-02-12T05:47:58;25.75;;;18.88;;
38972;SDS011;25333;50.762;4.470;2023-02-12T05:50:24;23.03;;;18.63;;
38972;SDS011;25333;50.762;4.470;2023-02-12T05:52:50;22.55;;;17.40;;
38972;SDS011;25333;50.762;4.470;2023-02-12T05:55:16;18.38;;;15.80;;
38972;SDS011;25333;50.762;4.470;2023-02-12T05:57:41;20.17;;;17.07;;
38972;SDS011;25333;50.762;4.470;2023-02-12T06:00:08;21.98;;;18.75;;
38972;SDS011;25333;50.762;4.470;2023-02-12T06:02:35;23.42;;;19.95;;
38972;SDS011;25333;50.762;4.470;2023-02-12T06:05:01;20.55;;;17.42;;
38972;SDS011;25333;50.762;4.470;2023-02-12T06:07:27;18.93;;;15.90;;
38972;SDS011;25333;50.762;4.470;2023-02-12T06:09:52;19.57;;;15.40;;
38972;SDS011;25333;50.762;4.470;2023-02-12T06:12:19;16.58;;;14.73;;
38972;SDS011;25333;50.762;4.470;2023-02-12T06:14:45;20.07;;;16.07;;
38972;SDS011;25333;50.762;4.470;2023-02-12T06:17:10;24.40;;;19.87;;
38972;SDS011;25333;50.762;4.470;2023-02-12T06:19:36;23.70;;;18.95;;
38972;SDS011;25333;50.762;4.470;2023-02-12T06:22:02;24.67;;;19.83;;
38972;SDS011;25333;50.762;4.470;2023-02-12T06:24:27;24.35;;;21.02;;
38972;SDS011;25333;50.762;4.470;2023-02-12T06:26:53;24.07;;;19.37;;
38972;SDS011;25333;50.762;4.470;2023-02-12T06:29:20;22.83;;;19.00;;
38972;SDS011;25333;50.762;4.470;2023-02-12T06:31:46;26.83;;;19.92;;
38972;SDS011;25333;50.762;4.470;2023-02-12T06:34:13;20.55;;;17.30;;
38972;SDS011;25333;50.762;4.470;2023-02-12T06:36:42;21.55;;;17.85;;
38972;SDS011;25333;50.762;4.470;2023-02-12T06:39:09;22.50;;;18.52;;
38972;SDS011;25333;50.762;4.470;2023-02-12T06:41:35;21.13;;;17.87;;
38972;SDS011;25333;50.762;4.470;2023-02-12T06:44:01;20.38;;;17.48;;
38972;SDS011;25333;50.762;4.470;2023-02-12T06:46:28;24.35;;;20.38;;
38972;SDS011;25333;50.762;4.470;2023-02-12T06:48:54;23.80;;;18.13;;
38972;SDS011;25333;50.762;4.470;2023-02-12T06:51:20;21.80;;;18.23;;
38972;SDS011;25333;50.762;4.470;2023-02-12T06:53:47;20.20;;;17.20;;
38972;SDS011;25333;50.762;4.470;2023-02-12T06:56:14;19.90;;;16.88;;
38972;SDS011;25333;50.762;4.470;2023-02-12T06:58:41;23.43;;;18.33;;
38972;SDS011;25333;50.762;4.470;2023-02-12T07:01:13;23.60;;;18.73;;
38972;SDS011;25333;50.762;4.470;2023-02-12T07:03:42;26.70;;;20.75;;
38972;SDS011;25333;50.762;4.470;2023-02-12T07:06:11;23.58;;;21.08;;
38972;SDS011;25333;50.762;4.470;2023-02-12T07:08:36;23.50;;;20.17;;
38972;SDS011;25333;50.762;4.470;2023-02-12T07:11:02;23.33;;;18.98;;
38972;SDS011;25333;50.762;4.470;2023-02-12T07:13:28;24.10;;;19.60;;
38972;SDS011;25333;50.762;4.470;2023-02-12T07:15:54;25.08;;;20.33;;
38972;SDS011;25333;50.762;4.470;2023-02-12T07:18:20;23.15;;;18.80;;
38972;SDS011;25333;50.762;4.470;2023-02-12T07:20:45;23.77;;;19.10;;
38972;SDS011;25333;50.762;4.470;2023-02-12T07:23:11;24.65;;;19.67;;
38972;SDS011;25333;50.762;4.470;2023-02-12T07:25:37;21.88;;;18.23;;
38972;SDS011;25333;50.762;4.470;2023-02-12T07:28:03;24.95;;;19.45;;
38972;SDS011;25333;50.762;4.470;2023-02-12T07:30:29;23.07;;;19.07;;
38972;SDS011;25333;50.762;4.470;2023-02-12T07:32:54;24.63;;;20.23;;
38972;SDS011;25333;50.762;4.470;2023-02-12T07:35:20;22.30;;;18.95;;
38972;SDS011;25333;50.762;4.470;2023-02-12T07:37:45;24.40;;;19.73;;
38972;SDS011;25333;50.762;4.470;2023-02-12T07:40:11;26.90;;;22.55;;
38972;SDS011;25333;50.762;4.470;2023-02-12T07:42:37;27.00;;;20.17;;
38972;SDS011;25333;50.762;4.470;2023-02-12T07:45:03;24.63;;;20.73;;
38972;SDS011;25333;50.762;4.470;2023-02-12T07:47:29;28.77;;;22.38;;
38972;SDS011;25333;50.762;4.470;2023-02-12T07:49:54;26.63;;;21.80;;
38972;SDS011;25333;50.762;4.470;2023-02-12T07:52:20;27.02;;;20.05;;
38972;SDS011;25333;50.762;4.470;2023-02-12T07:54:46;28.33;;;22.63;;
38972;SDS011;25333;50.762;4.470;2023-02-12T07:57:12;28.75;;;22.02;;
38972;SDS011;25333;50.762;4.470;2023-02-12T07:59:37;31.15;;;22.08;;
38972;SDS011;25333;50.762;4.470;2023-02-12T08:02:03;25.23;;;21.53;;
38972;SDS011;25333;50.762;4.470;2023-02-12T08:04:28;24.10;;;20.25;;
38972;SDS011;25333;50.762;4.470;2023-02-12T08:06:54;24.00;;;18.63;;
38972;SDS011;25333;50.762;4.470;2023-02-12T08:09:21;25.20;;;19.93;;
38972;SDS011;25333;50.762;4.470;2023-02-12T08:11:48;25.03;;;18.30;;
38972;SDS011;25333;50.762;4.470;2023-02-12T08:14:15;28.13;;;20.42;;
38972;SDS011;25333;50.762;4.470;2023-02-12T08:16:43;24.85;;;18.50;;
38972;SDS011;25333;50.762;4.470;2023-02-12T08:19:10;26.00;;;20.58;;
38972;SDS011;25333;50.762;4.470;2023-02-12T08:21:36;29.52;;;23.13;;
38972;SDS011;25333;50.762;4.470;2023-02-12T08:24:02;23.50;;;20.73;;
38972;SDS011;25333;50.762;4.470;2023-02-12T08:26:32;28.13;;;21.57;;
38972;SDS011;25333;50.762;4.470;2023-02-12T08:29:00;24.20;;;20.90;;
38972;SDS011;25333;50.762;4.470;2023-02-12T08:31:32;24.63;;;20.67;;
38972;SDS011;25333;50.762;4.470;2023-02-12T08:34:02;25.23;;;19.85;;
38972;SDS011;25333;50.762;4.470;2023-02-12T08:36:30;21.05;;;18.45;;
38972;SDS011;25333;50.762;4.470;2023-02-12T08:39:04;24.65;;;20.02;;
38972;SDS011;25333;50.762;4.470;2023-02-12T08:41:31;25.80;;;21.80;;
38972;SDS011;25333;50.762;4.470;2023-02-12T08:43:58;25.63;;;21.13;;
38972;SDS011;25333;50.762;4.470;2023-02-12T08:46:26;26.75;;;21.08;;
38972;SDS011;25333;50.762;4.470;2023-02-12T08:48:54;27.47;;;21.13;;
38972;SDS011;25333;50.762;4.470;2023-02-12T08:51:23;26.75;;;22.45;;
38972;SDS011;25333;50.762;4.470;2023-02-12T08:53:51;30.17;;;21.60;;
38972;SDS011;25333;50.762;4.470;2023-02-12T08:56:21;28.65;;;21.70;;
38972;SDS011;25333;50.762;4.470;2023-02-12T08:58:48;26.30;;;20.70;;
38972;SDS011;25333;50.762;4.470;2023-02-12T09:01:15;26.92;;;21.55;;
38972;SDS011;25333;50.762;4.470;2023-02-12T09:03:46;29.48;;;22.23;;
38972;SDS011;25333;50.762;4.470;2023-02-12T09:06:12;27.00;;;22.55;;
38972;SDS011;25333;50.762;4.470;2023-02-12T09:08:38;28.13;;;22.50;;
38972;SDS011;25333;50.762;4.470;2023-02-12T09:11:05;28.70;;;20.65;;
38972;SDS011;25333;50.762;4.470;2023-02-12T09:13:32;30.23;;;23.17;;
38972;SDS011;25333;50.762;4.470;2023-02-12T09:15:59;30.50;;;20.93;;
38972;SDS011;25333;50.762;4.470;2023-02-12T09:18:26;26.27;;;20.50;;
38972;SDS011;25333;50.762;4.470;2023-02-12T09:20:52;26.70;;;19.75;;
38972;SDS011;25333;50.762;4.470;2023-02-12T09:23:18;27.53;;;22.30;;
38972;SDS011;25333;50.762;4.470;2023-02-12T09:25:44;29.45;;;23.88;;
38972;SDS011;25333;50.762;4.470;2023-02-12T09:28:10;29.00;;;22.38;;
38972;SDS011;25333;50.762;4.470;2023-02-12T09:30:38;29.05;;;21.63;;
38972;SDS011;25333;50.762;4.470;2023-02-12T09:33:05;26.02;;;21.38;;
38972;SDS011;25333;50.762;4.470;2023-02-12T09:35:35;32.20;;;22.08;;
38972;SDS011;25333;50.762;4.470;2023-02-12T09:38:01;29.48;;;22.05;;
38972;SDS011;25333;50.762;4.470;2023-02-12T09:43:30;29.05;;;22.98;;
38972;SDS011;25333;50.762;4.470;2023-02-12T09:46:04;28.25;;;22.10;;
38972;SDS011;25333;50.762;4.470;2023-02-12T09:48:43;29.10;;;23.67;;
38972;SDS011;25333;50.762;4.470;2023-02-12T09:51:30;30.73;;;23.77;;
38972;SDS011;25333;50.762;4.470;2023-02-12T09:53:59;28.08;;;22.88;;
38972;SDS011;25333;50.762;4.470;2023-02-12T09:56:33;27.83;;;21.35;;
38972;SDS011;25333;50.762;4.470;2023-02-12T09:59:03;27.87;;;20.93;;
38972;SDS011;25333;50.762;4.470;2023-02-12T10:01:31;27.50;;;20.40;;
38972;SDS011;25333;50.762;4.470;2023-02-12T10:03:57;28.10;;;21.53;;
38972;SDS011;25333;50.762;4.470;2023-02-12T10:06:24;34.37;;;24.23;;
38972;SDS011;25333;50.762;4.470;2023-02-12T10:09:01;32.92;;;24.92;;
38972;SDS011;25333;50.762;4.470;2023-02-12T10:27:58;30.60;;;24.30;;
38972;SDS011;25333;50.762;4.470;2023-02-12T10:30:36;32.13;;;24.30;;
38972;SDS011;25333;50.762;4.470;2023-02-12T10:33:11;32.40;;;25.02;;
38972;SDS011;25333;50.762;4.470;2023-02-12T10:35:46;33.53;;;25.45;;
38972;SDS011;25333;50.762;4.470;2023-02-12T10:38:19;34.78;;;26.05;;
38972;SDS011;25333;50.762;4.470;2023-02-12T10:40:54;31.45;;;23.90;;
38972;SDS011;25333;50.762;4.470;2023-02-12T10:43:22;31.38;;;22.90;;
38972;SDS011;25333;50.762;4.470;2023-02-12T10:45:48;30.63;;;21.93;;
38972;SDS011;25333;50.762;4.470;2023-02-12T10:48:16;32.80;;;22.52;;
38972;SDS011;25333;50.762;4.470;2023-02-12T10:54:02;25.73;;;21.00;;
38972;SDS011;25333;50.762;4.470;2023-02-12T10:56:17;30.70;;;22.60;;
38972;SDS011;25333;50.762;4.470;2023-02-12T11:01:29;31.63;;;21.60;;
38972;SDS011;25333;50.762;4.470;2023-02-12T11:03:57;25.73;;;19.93;;
38972;SDS011;25333;50.762;4.470;2023-02-12T11:06:29;24.02;;;18.70;;
38972;SDS011;25333;50.762;4.470;2023-02-12T11:08:57;31.40;;;20.50;;
38972;SDS011;25333;50.762;4.470;2023-02-12T11:11:23;24.92;;;19.63;;
38972;SDS011;25333;50.762;4.470;2023-02-12T11:14:01;29.90;;;21.23;;
38972;SDS011;25333;50.762;4.470;2023-02-12T11:16:29;28.58;;;21.92;;
38972;SDS011;25333;50.762;4.470;2023-02-12T11:19:01;28.97;;;19.53;;
38972;SDS011;25333;50.762;4.470;2023-02-12T11:21:28;26.98;;;19.45;;
38972;SDS011;25333;50.762;4.470;2023-02-12T11:23:55;30.38;;;20.42;;
38972;SDS011;25333;50.762;4.470;2023-02-12T11:26:22;25.40;;;16.63;;
38972;SDS011;25333;50.762;4.470;2023-02-12T11:28:52;24.77;;;18.42;;
38972;SDS011;25333;50.762;4.470;2023-02-12T11:34:12;21.90;;;16.70;;
38972;SDS011;25333;50.762;4.470;2023-02-12T11:36:41;21.45;;;16.05;;
38972;SDS011;25333;50.762;4.470;2023-02-12T11:42:04;20.55;;;16.70;;
38972;SDS011;25333;50.762;4.470;2023-02-12T11:44:40;23.27;;;17.60;;
38972;SDS011;25333;50.762;4.470;2023-02-12T11:47:09;24.98;;;16.85;;
38972;SDS011;25333;50.762;4.470;2023-02-12T11:49:42;21.30;;;16.33;;
38972;SDS011;25333;50.762;4.470;2023-02-12T11:52:22;23.23;;;16.77;;
38972;SDS011;25333;50.762;4.470;2023-02-12T11:54:50;20.83;;;15.85;;
38972;SDS011;25333;50.762;4.470;2023-02-12T11:59:59;22.92;;;16.23;;
38972;SDS011;25333;50.762;4.470;2023-02-12T12:02:31;23.38;;;16.75;;
38972;SDS011;25333;50.762;4.470;2023-02-12T12:05:07;24.48;;;17.15;;
38972;SDS011;25333;50.762;4.470;2023-02-12T12:07:38;24.45;;;17.60;;
38972;SDS011;25333;50.762;4.470;2023-02-12T12:10:11;23.63;;;16.00;;
38972;SDS011;25333;50.762;4.470;2023-02-12T12:12:52;24.80;;;15.50;;
38972;SDS011;25333;50.762;4.470;2023-02-12T12:15:23;21.83;;;16.35;;
38972;SDS011;25333;50.762;4.470;2023-02-12T12:18:21;20.67;;;15.27;;
38972;SDS011;25333;50.762;4.470;2023-02-12T12:21:12;23.27;;;16.63;;
38972;SDS011;25333;50.762;4.470;2023-02-12T12:24:02;27.40;;;18.17;;
38972;SDS011;25333;50.762;4.470;2023-02-12T12:26:29;21.08;;;16.75;;
38972;SDS011;25333;50.762;4.470;2023-02-12T12:31:32;25.95;;;19.02;;
38972;SDS011;25333;50.762;4.470;2023-02-12T12:34:06;24.45;;;18.02;;
38972;SDS011;25333;50.762;4.470;2023-02-12T12:39:26;28.00;;;19.23;;
38972;SDS011;25333;50.762;4.470;2023-02-12T12:49:48;25.17;;;18.20;;
38972;SDS011;25333;50.762;4.470;2023-02-12T12:58:02;29.30;;;20.88;;
38972;SDS011;25333;50.762;4.470;2023-02-12T13:00:40;26.48;;;20.40;;
38972;SDS011;25333;50.762;4.470;2023-02-12T13:06:20;30.58;;;20.40;;
38972;SDS011;25333;50.762;4.470;2023-02-12T13:17:22;27.08;;;19.92;;
38972;SDS011;25333;50.762;4.470;2023-02-12T13:20:26;27.42;;;18.08;;
38972;SDS011;25333;50.762;4.470;2023-02-12T13:23:04;26.75;;;17.95;;
38972;SDS011;25333;50.762;4.470;2023-02-12T13:26:02;30.52;;;19.38;;
38972;SDS011;25333;50.762;4.470;2023-02-12T13:28:43;27.63;;;19.05;;
38972;SDS011;25333;50.762;4.470;2023-02-12T13:31:13;29.38;;;19.60;;
38972;SDS011;25333;50.762;4.470;2023-02-12T13:33:53;30.38;;;22.05;;
38972;SDS011;25333;50.762;4.470;2023-02-12T13:36:22;29.00;;;21.07;;
38972;SDS011;25333;50.762;4.470;2023-02-12T13:41:50;31.23;;;22.90;;
38972;SDS011;25333;50.762;4.470;2023-02-12T13:44:34;31.25;;;22.05;;
38972;SDS011;25333;50.762;4.470;2023-02-12T13:47:18;32.60;;;21.80;;
38972;SDS011;25333;50.762;4.470;2023-02-12T13:49:56;33.75;;;23.08;;
38972;SDS011;25333;50.762;4.470;2023-02-12T13:57:41;29.33;;;22.33;;
38972;SDS011;25333;50.762;4.470;2023-02-12T14:00:55;33.17;;;22.23;;
38972;SDS011;25333;50.762;4.470;2023-02-12T14:03:11;33.22;;;21.92;;
38972;SDS011;25333;50.762;4.470;2023-02-12T14:05:37;34.50;;;22.20;;
38972;SDS011;25333;50.762;4.470;2023-02-12T14:08:04;37.13;;;23.13;;
38972;SDS011;25333;50.762;4.470;2023-02-12T14:10:35;35.22;;;22.70;;
38972;SDS011;25333;50.762;4.470;2023-02-12T14:13:09;32.23;;;22.20;;
38972;SDS011;25333;50.762;4.470;2023-02-12T14:15:43;30.60;;;22.57;;
38972;SDS011;25333;50.762;4.470;2023-02-12T14:18:29;33.10;;;23.38;;
38972;SDS011;25333;50.762;4.470;2023-02-12T14:23:41;31.63;;;22.47;;
38972;SDS011;25333;50.762;4.470;2023-02-12T14:26:14;30.08;;;21.15;;
38972;SDS011;25333;50.762;4.470;2023-02-12T14:28:49;30.73;;;21.90;;
38972;SDS011;25333;50.762;4.470;2023-02-12T14:31:25;33.78;;;22.10;;
38972;SDS011;25333;50.762;4.470;2023-02-12T14:41:44;32.40;;;22.95;;
38972;SDS011;25333;50.762;4.470;2023-02-12T14:46:56;37.80;;;23.42;;
38972;SDS011;25333;50.762;4.470;2023-02-12T14:54:45;38.97;;;24.45;;
38972;SDS011;25333;50.762;4.470;2023-02-12T14:57:25;31.37;;;23.13;;
38972;SDS011;25333;50.762;4.470;2023-02-12T15:00:39;37.20;;;25.42;;
38972;SDS011;25333;50.762;4.470;2023-02-12T15:05:22;28.80;;;22.25;;
38972;SDS011;25333;50.762;4.470;2023-02-12T15:10:45;30.33;;;23.15;;
38972;SDS011;25333;50.762;4.470;2023-02-12T15:15:52;31.87;;;22.50;;
38972;SDS011;25333;50.762;4.470;2023-02-12T15:18:26;30.67;;;22.02;;
38972;SDS011;25333;50.762;4.470;2023-02-12T15:24:01;25.80;;;19.98;;
38972;SDS011;25333;50.762;4.470;2023-02-12T15:26:41;31.25;;;21.20;;
38972;SDS011;25333;50.762;4.470;2023-02-12T15:29:18;30.23;;;21.35;;
38972;SDS011;25333;50.762;4.470;2023-02-12T15:31:53;23.40;;;18.95;;
38972;SDS011;25333;50.762;4.470;2023-02-12T15:34:25;28.55;;;20.17;;
38972;SDS011;25333;50.762;4.470;2023-02-12T15:36:58;28.02;;;20.88;;
38972;SDS011;25333;50.762;4.470;2023-02-12T15:39:25;31.58;;;21.67;;
38972;SDS011;25333;50.762;4.470;2023-02-12T15:41:52;29.98;;;20.08;;
38972;SDS011;25333;50.762;4.470;2023-02-12T15:44:23;31.90;;;21.02;;
38972;SDS011;25333;50.762;4.470;2023-02-12T15:49:27;28.65;;;20.30;;
38972;SDS011;25333;50.762;4.470;2023-02-12T15:52:06;28.53;;;21.30;;
38972;SDS011;25333;50.762;4.470;2023-02-12T15:54:32;30.50;;;21.50;;
38972;SDS011;25333;50.762;4.470;2023-02-12T15:56:59;30.97;;;22.47;;
38972;SDS011;25333;50.762;4.470;2023-02-12T15:59:25;33.63;;;23.63;;
38972;SDS011;25333;50.762;4.470;2023-02-12T16:01:57;27.40;;;20.75;;
38972;SDS011;25333;50.762;4.470;2023-02-12T16:04:27;27.15;;;19.83;;
38972;SDS011;25333;50.762;4.470;2023-02-12T16:07:00;27.37;;;20.90;;
38972;SDS011;25333;50.762;4.470;2023-02-12T16:09:29;29.75;;;20.85;;
38972;SDS011;25333;50.762;4.470;2023-02-12T16:11:59;33.40;;;21.92;;
38972;SDS011;25333;50.762;4.470;2023-02-12T16:15:01;30.20;;;21.75;;
38972;SDS011;25333;50.762;4.470;2023-02-12T16:22:35;29.50;;;20.60;;
38972;SDS011;25333;50.762;4.470;2023-02-12T16:25:02;33.08;;;23.60;;
38972;SDS011;25333;50.762;4.470;2023-02-12T16:27:37;28.95;;;21.83;;
38972;SDS011;25333;50.762;4.470;2023-02-12T16:30:05;31.30;;;24.02;;
38972;SDS011;25333;50.762;4.470;2023-02-12T16:32:46;34.15;;;23.15;;
38972;SDS011;25333;50.762;4.470;2023-02-12T16:42:37;32.35;;;24.20;;
38972;SDS011;25333;50.762;4.470;2023-02-12T16:45:37;36.40;;;24.88;;
38972;SDS011;25333;50.762;4.470;2023-02-12T16:50:29;31.50;;;23.60;;
38972;SDS011;25333;50.762;4.470;2023-02-12T16:52:58;32.20;;;22.47;;
38972;SDS011;25333;50.762;4.470;2023-02-12T16:55:26;33.37;;;24.00;;
38972;SDS011;25333;50.762;4.470;2023-02-12T16:57:51;37.38;;;26.30;;
38972;SDS011;25333;50.762;4.470;2023-02-12T17:00:17;37.00;;;25.67;;
38972;SDS011;25333;50.762;4.470;2023-02-12T17:02:43;38.63;;;26.90;;
38972;SDS011;25333;50.762;4.470;2023-02-12T17:05:11;41.20;;;26.60;;
38972;SDS011;25333;50.762;4.470;2023-02-12T17:07:40;35.33;;;26.67;;
38972;SDS011;25333;50.762;4.470;2023-02-12T17:10:06;36.25;;;24.58;;
38972;SDS011;25333;50.762;4.470;2023-02-12T17:12:48;35.97;;;26.52;;
38972;SDS011;25333;50.762;4.470;2023-02-12T17:15:26;37.65;;;26.33;;
38972;SDS011;25333;50.762;4.470;2023-02-12T17:17:54;42.22;;;29.23;;